createdAt,value
2023-03-19T00:00:34.924Z,7.50
2023-03-19T00:03:01.712Z,8.37
2023-03-19T00:05:28.444Z,8.50
2023-03-19T00:07:55.110Z,8.77
2023-03-19T00:10:24.215Z,8.93
2023-03-19T00:12:51.183Z,9.07
2023-03-19T00:15:17.925Z,9.17
2023-03-19T00:17:45.834Z,9.43
2023-03-19T00:20:15.154Z,9.47
2023-03-19T00:22:42.143Z,9.40
2023-03-19T00:25:10.041Z,9.47
2023-03-19T00:27:37.669Z,9.60
2023-03-19T00:30:06.053Z,9.60
2023-03-19T00:32:35.607Z,9.47
2023-03-19T00:35:03.907Z,8.83
2023-03-19T00:37:33.093Z,9.33
2023-03-19T00:39:59.825Z,9.70
2023-03-19T00:42:27.108Z,8.77
2023-03-19T00:44:53.834Z,9.07
2023-03-19T00:47:21.567Z,9.00
2023-03-19T00:49:48.462Z,8.83
2023-03-19T00:52:17.845Z,8.47
2023-03-19T00:54:44.533Z,8.97
2023-03-19T00:57:11.384Z,8.53
2023-03-19T00:59:38.088Z,8.90
2023-03-19T01:02:07.246Z,9.20
2023-03-19T01:04:33.942Z,8.97
2023-03-19T01:07:03.308Z,8.57
2023-03-19T01:09:29.959Z,9.33
2023-03-19T01:11:56.913Z,9.33
2023-03-19T01:14:26.006Z,8.73
2023-03-19T01:16:52.622Z,9.33
2023-03-19T01:19:21.089Z,9.07
2023-03-19T01:21:49.592Z,9.60
2023-03-19T01:24:20.651Z,9.13
2023-03-19T01:26:52.137Z,9.30
2023-03-19T01:29:31.857Z,8.47
2023-03-19T01:32:03.486Z,8.67
2023-03-19T01:34:53.685Z,8.60
2023-03-19T01:37:20.932Z,8.90
2023-03-19T01:39:47.783Z,9.20
2023-03-19T01:42:14.976Z,8.63
2023-03-19T01:45:24.926Z,9.07
2023-03-19T01:48:41.433Z,8.80
2023-03-19T01:51:15.842Z,9.00
2023-03-19T01:54:16.044Z,8.83
2023-03-19T01:57:08.418Z,9.50
2023-03-19T02:00:08.152Z,10.03
2023-03-19T02:02:44.900Z,10.50
2023-03-19T02:05:37.792Z,10.10
2023-03-19T02:08:10.002Z,11.30
2023-03-19T02:10:37.263Z,10.07
2023-03-19T02:13:04.852Z,10.70
2023-03-19T02:15:31.555Z,10.40
2023-03-19T02:17:58.628Z,10.80
2023-03-19T02:20:44.051Z,10.80
2023-03-19T02:23:35.173Z,10.53
2023-03-19T02:26:12.155Z,11.00
2023-03-19T02:28:44.101Z,10.37
2023-03-19T02:31:14.059Z,10.87
2023-03-19T02:33:41.040Z,10.93
2023-03-19T02:36:11.428Z,11.43
2023-03-19T02:38:41.068Z,11.80
2023-03-19T02:41:09.215Z,11.40
2023-03-19T02:43:38.718Z,11.73
2023-03-19T02:46:13.233Z,11.33
2023-03-19T02:48:41.369Z,11.83
2023-03-19T02:51:10.563Z,11.13
2023-03-19T02:53:37.266Z,11.73
2023-03-19T02:56:04.022Z,11.30
2023-03-19T02:58:30.733Z,11.87
2023-03-19T03:00:57.516Z,11.63
2023-03-19T03:03:24.206Z,11.80
2023-03-19T03:05:50.874Z,11.33
2023-03-19T03:08:18.677Z,12.10
2023-03-19T03:10:45.362Z,11.70
2023-03-19T03:13:12.149Z,12.27
2023-03-19T03:15:38.773Z,11.53
2023-03-19T03:18:06.126Z,11.63
2023-03-19T03:20:33.620Z,12.17
2023-03-19T03:23:01.012Z,11.97
2023-03-19T03:25:30.732Z,11.73
2023-03-19T03:27:59.994Z,12.13
2023-03-19T03:30:26.911Z,11.30
2023-03-19T03:32:53.742Z,11.70
2023-03-19T03:35:22.814Z,12.13
2023-03-19T03:37:50.696Z,11.47
2023-03-19T03:40:18.258Z,11.60
2023-03-19T03:42:45.551Z,12.53
2023-03-19T03:45:12.959Z,11.37
2023-03-19T03:47:42.309Z,11.77
2023-03-19T03:50:12.796Z,11.03
2023-03-19T03:52:42.162Z,11.47
2023-03-19T03:55:09.330Z,11.60
2023-03-19T03:57:36.686Z,11.53
2023-03-19T04:00:03.982Z,11.27
2023-03-19T04:02:40.026Z,11.67
2023-03-19T04:05:07.839Z,11.13
2023-03-19T04:07:34.838Z,11.17
2023-03-19T04:10:02.391Z,11.87
2023-03-19T04:12:29.580Z,12.20
2023-03-19T04:14:58.568Z,11.73
2023-03-19T04:17:26.180Z,11.87
2023-03-19T04:19:52.902Z,11.83
2023-03-19T04:22:19.670Z,11.30
2023-03-19T04:24:47.843Z,12.73
2023-03-19T04:27:14.944Z,11.53
2023-03-19T04:29:41.892Z,11.70
2023-03-19T04:32:09.187Z,12.13
2023-03-19T04:34:36.231Z,11.30
2023-03-19T04:37:05.530Z,11.37
2023-03-19T04:39:35.342Z,11.70
2023-03-19T04:42:03.199Z,11.97
2023-03-19T04:44:33.378Z,11.87
2023-03-19T04:47:01.892Z,11.60
2023-03-19T04:49:36.457Z,13.50
2023-03-19T04:52:03.943Z,17.50
2023-03-19T04:54:30.743Z,16.37
2023-03-19T04:56:57.796Z,16.70
2023-03-19T04:59:28.830Z,16.60
2023-03-19T05:01:55.768Z,16.13
2023-03-19T05:04:24.117Z,16.90
2023-03-19T05:06:55.374Z,18.10
2023-03-19T05:09:22.744Z,16.73
2023-03-19T05:11:49.936Z,16.07
2023-03-19T05:14:22.174Z,18.20
2023-03-19T05:17:11.243Z,16.77
2023-03-19T05:19:53.611Z,15.97
2023-03-19T05:22:20.572Z,15.80
2023-03-19T05:24:47.271Z,16.33
2023-03-19T05:27:15.218Z,16.20
2023-03-19T05:29:55.756Z,15.70
2023-03-19T05:32:41.080Z,15.50
2023-03-19T05:35:14.436Z,15.40
2023-03-19T05:37:42.127Z,14.33
2023-03-19T05:40:09.675Z,13.30
2023-03-19T05:42:36.989Z,12.47
2023-03-19T05:45:05.469Z,11.97
2023-03-19T05:47:40.479Z,11.87
2023-03-19T05:50:08.218Z,11.87
2023-03-19T05:52:36.652Z,10.93
2023-03-19T05:55:04.788Z,10.97
2023-03-19T05:57:42.497Z,11.60
2023-03-19T06:00:27.892Z,10.87
2023-03-19T06:02:55.197Z,11.27
2023-03-19T06:05:34.085Z,11.87
2023-03-19T06:08:09.191Z,11.67
2023-03-19T06:10:59.571Z,11.90
2023-03-19T06:13:27.148Z,12.10
2023-03-19T06:15:58.363Z,11.93
2023-03-19T06:18:41.124Z,11.90
2023-03-19T06:21:11.562Z,12.10
2023-03-19T06:23:39.316Z,11.83
2023-03-19T06:26:07.456Z,11.67
2023-03-19T06:28:54.468Z,11.47
2023-03-19T06:31:23.180Z,10.97
2023-03-19T06:33:55.547Z,12.23
2023-03-19T06:36:26.260Z,11.50
2023-03-19T06:39:00.914Z,11.13
2023-03-19T06:41:30.375Z,11.40
2023-03-19T06:44:08.681Z,11.27
2023-03-19T06:46:37.060Z,11.23
2023-03-19T06:49:03.779Z,10.93
2023-03-19T06:51:38.352Z,11.07
2023-03-19T06:54:07.877Z,14.00
2023-03-19T06:56:37.319Z,12.13
2023-03-19T06:59:06.335Z,11.87
2023-03-19T07:01:32.956Z,11.80
2023-03-19T07:04:02.476Z,11.37
2023-03-19T07:06:34.300Z,10.70
2023-03-19T07:09:01.661Z,13.80
2023-03-19T07:11:28.736Z,13.37
2023-03-19T07:13:56.663Z,13.67
2023-03-19T07:16:23.466Z,11.27
2023-03-19T07:18:50.671Z,12.40
2023-03-19T07:21:20.700Z,12.87
2023-03-19T07:23:47.391Z,11.17
2023-03-19T07:26:15.763Z,11.73
2023-03-19T07:28:46.820Z,10.77
2023-03-19T07:31:15.542Z,11.07
2023-03-19T07:33:42.742Z,10.70
2023-03-19T07:36:17.097Z,10.77
2023-03-19T07:38:43.867Z,11.27
2023-03-19T07:41:10.668Z,10.90
2023-03-19T07:43:40.473Z,10.67
2023-03-19T07:46:14.325Z,13.00
2023-03-19T07:48:46.381Z,11.80
2023-03-19T07:51:19.126Z,11.27
2023-03-19T07:53:48.453Z,11.10
2023-03-19T07:56:15.685Z,11.90
2023-03-19T07:58:42.422Z,12.73
2023-03-19T08:01:09.236Z,11.10
2023-03-19T08:03:36.345Z,11.10
2023-03-19T08:06:07.472Z,11.70
2023-03-19T08:08:37.261Z,11.20
2023-03-19T08:11:07.266Z,11.33
2023-03-19T08:13:34.965Z,11.73
2023-03-19T08:16:01.674Z,11.07
2023-03-19T08:18:28.952Z,12.90
2023-03-19T08:20:57.716Z,11.57
2023-03-19T08:23:26.526Z,10.83
2023-03-19T08:25:57.178Z,10.67
2023-03-19T08:28:26.388Z,11.50
2023-03-19T08:30:53.109Z,11.10
2023-03-19T08:33:26.015Z,10.33
2023-03-19T08:35:56.031Z,11.10
2023-03-19T08:38:25.356Z,11.00
2023-03-19T08:40:53.949Z,11.03
2023-03-19T08:43:20.608Z,11.50
2023-03-19T08:45:49.608Z,10.70
2023-03-19T08:48:17.944Z,11.60
2023-03-19T08:50:44.826Z,11.83
2023-03-19T08:53:18.851Z,11.47
2023-03-19T08:56:02.263Z,11.50
2023-03-19T08:58:33.329Z,11.70
2023-03-19T09:01:11.951Z,10.93
2023-03-19T09:03:39.595Z,11.90
2023-03-19T09:06:14.420Z,11.63
2023-03-19T09:08:49.114Z,11.23
2023-03-19T09:11:18.068Z,11.40
2023-03-19T09:13:44.778Z,12.00
2023-03-19T09:16:13.471Z,11.37
2023-03-19T09:18:40.412Z,11.77
2023-03-19T09:21:09.821Z,12.37
2023-03-19T09:23:38.103Z,11.47
2023-03-19T09:26:08.346Z,11.43
2023-03-19T09:28:46.317Z,11.33
2023-03-19T09:31:15.603Z,11.60
2023-03-19T09:33:45.767Z,10.73
2023-03-19T09:36:12.460Z,11.13
2023-03-19T09:38:41.261Z,11.37
2023-03-19T09:41:20.855Z,11.40
2023-03-19T09:44:04.519Z,11.27
2023-03-19T09:46:50.313Z,11.50
2023-03-19T09:49:25.558Z,11.27
2023-03-19T09:51:54.597Z,11.23
2023-03-19T09:54:48.429Z,11.67
2023-03-19T09:57:17.561Z,11.40
2023-03-19T09:59:44.747Z,11.57
2023-03-19T10:02:41.941Z,11.70
2023-03-19T10:05:28.491Z,11.37
2023-03-19T10:08:01.240Z,11.33
2023-03-19T10:10:45.857Z,10.80
2023-03-19T10:13:31.385Z,11.17
2023-03-19T10:16:05.278Z,10.87
2023-03-19T10:18:39.450Z,11.03
2023-03-19T10:21:16.583Z,11.53
2023-03-19T10:24:21.613Z,11.00
2023-03-19T10:26:58.683Z,11.20
2023-03-19T10:29:30.417Z,11.10
2023-03-19T10:32:13.915Z,11.10
2023-03-19T10:34:45.948Z,10.47
2023-03-19T10:37:12.508Z,11.10
2023-03-19T10:39:40.453Z,11.57
2023-03-19T10:42:32.633Z,12.20
2023-03-19T10:45:12.444Z,10.50
2023-03-19T10:47:41.794Z,11.00
2023-03-19T10:50:19.978Z,10.87
2023-03-19T10:52:55.811Z,11.10
2023-03-19T10:55:26.978Z,11.03
2023-03-19T10:58:02.720Z,10.50
2023-03-19T11:00:32.431Z,11.17
2023-03-19T11:02:59.295Z,11.43
2023-03-19T11:05:40.827Z,12.90
2023-03-19T11:08:32.994Z,11.10
2023-03-19T11:11:02.454Z,10.53
2023-03-19T11:13:29.163Z,11.33
2023-03-19T11:15:59.431Z,10.57
2023-03-19T11:18:34.046Z,10.57
2023-03-19T11:21:07.417Z,10.93
2023-03-19T11:23:41.418Z,10.67
2023-03-19T11:26:19.344Z,10.80
2023-03-19T11:28:53.319Z,10.83
2023-03-19T11:32:21.013Z,10.43
2023-03-19T11:35:03.945Z,10.37
2023-03-19T11:37:39.959Z,10.50
2023-03-19T11:40:17.683Z,11.40
2023-03-19T11:43:07.189Z,10.23
2023-03-19T11:45:59.467Z,10.70
2023-03-19T11:48:37.469Z,10.70
2023-03-19T11:51:23.143Z,10.40
2023-03-19T11:54:34.854Z,10.70
2023-03-19T11:57:06.312Z,11.20
2023-03-19T11:59:36.634Z,10.80
2023-03-19T12:02:15.175Z,10.50
2023-03-19T12:05:12.871Z,10.40
2023-03-19T12:07:58.184Z,10.90
2023-03-19T12:10:45.576Z,11.20
2023-03-19T12:13:26.120Z,9.80
2023-03-19T12:16:14.780Z,10.07
2023-03-19T12:18:48.667Z,10.53
2023-03-19T12:21:42.192Z,9.90
2023-03-19T12:24:28.656Z,9.70
2023-03-19T12:27:10.622Z,9.60
2023-03-19T12:30:11.918Z,9.50
2023-03-19T12:33:04.999Z,9.67
2023-03-19T12:35:37.037Z,9.53
2023-03-19T12:38:25.610Z,9.10
2023-03-19T12:40:53.389Z,9.27
2023-03-19T12:43:36.318Z,9.67
2023-03-19T12:46:09.073Z,8.93
2023-03-19T12:49:11.439Z,8.73
2023-03-19T12:52:08.064Z,9.47
2023-03-19T12:54:44.528Z,8.70
2023-03-19T12:57:17.061Z,8.70
2023-03-19T13:00:10.572Z,8.63
2023-03-19T13:02:59.443Z,9.77
2023-03-19T13:05:48.550Z,9.57
2023-03-19T13:08:27.801Z,9.37
2023-03-19T13:10:55.868Z,8.60
2023-03-19T13:13:35.140Z,9.33
2023-03-19T13:16:17.296Z,8.73
2023-03-19T13:19:29.548Z,8.30
2023-03-19T13:22:02.441Z,8.33
2023-03-19T13:24:35.778Z,8.83
2023-03-19T13:27:03.727Z,9.20
2023-03-19T13:29:34.949Z,8.40
2023-03-19T13:32:23.472Z,8.43
2023-03-19T13:35:28.793Z,8.33
2023-03-19T13:38:14.397Z,8.80
2023-03-19T13:40:52.915Z,8.57
2023-03-19T13:43:30.867Z,8.37
2023-03-19T13:46:20.238Z,8.63
2023-03-19T13:48:52.266Z,8.27
2023-03-19T13:51:21.964Z,8.33
2023-03-19T13:54:01.343Z,8.97
2023-03-19T13:56:30.957Z,8.63
2023-03-19T13:59:24.250Z,9.07
2023-03-19T14:01:52.094Z,8.30
2023-03-19T14:04:23.540Z,8.63
2023-03-19T14:07:22.632Z,8.07
2023-03-19T14:09:51.807Z,8.27
2023-03-19T14:12:25.924Z,8.43
2023-03-19T14:15:10.493Z,8.40
2023-03-19T14:17:48.677Z,8.73
2023-03-19T14:20:24.054Z,8.13
2023-03-19T14:23:11.511Z,7.83
2023-03-19T14:25:58.095Z,8.37
2023-03-19T14:28:38.358Z,8.40
2023-03-19T14:31:10.445Z,8.40
2023-03-19T14:33:59.166Z,8.37
2023-03-19T14:36:27.602Z,8.20
2023-03-19T14:39:05.149Z,8.47
2023-03-19T14:41:46.448Z,8.20
2023-03-19T14:44:46.767Z,8.37
2023-03-19T14:47:35.427Z,8.07
2023-03-19T14:50:42.639Z,8.23
2023-03-19T14:53:16.815Z,7.87
2023-03-19T14:55:49.983Z,7.87
2023-03-19T14:58:17.246Z,7.80
2023-03-19T15:00:47.227Z,8.27
2023-03-19T15:03:20.835Z,7.83
2023-03-19T15:05:53.493Z,7.50
2023-03-19T15:08:24.513Z,7.80
2023-03-19T15:11:20.337Z,8.00
2023-03-19T15:14:12.158Z,8.37
2023-03-19T15:17:19.403Z,7.53
2023-03-19T15:19:52.244Z,8.60
2023-03-19T15:22:23.974Z,8.73
2023-03-19T15:24:50.876Z,8.47
2023-03-19T15:27:20.908Z,8.20
2023-03-19T15:29:52.361Z,8.23
2023-03-19T15:33:04.480Z,8.40
2023-03-19T15:35:34.270Z,9.13
2023-03-19T15:38:14.038Z,8.73
2023-03-19T15:40:42.923Z,8.10
2023-03-19T15:43:14.410Z,8.57
2023-03-19T15:45:48.425Z,8.07
2023-03-19T15:48:23.404Z,8.30
2023-03-19T15:51:23.012Z,8.23
2023-03-19T15:53:50.429Z,8.83
2023-03-19T15:56:19.774Z,8.23
2023-03-19T15:58:57.339Z,8.70
2023-03-19T16:01:27.392Z,8.43
2023-03-19T16:04:16.464Z,8.63
2023-03-19T16:06:45.453Z,9.07
2023-03-19T16:09:19.751Z,8.80
2023-03-19T16:11:46.813Z,9.07
2023-03-19T16:14:31.688Z,8.77
2023-03-19T16:17:03.891Z,8.67
2023-03-19T16:19:53.404Z,9.03
2023-03-19T16:22:24.974Z,8.43
2023-03-19T16:24:53.883Z,9.00
2023-03-19T16:27:22.957Z,9.13
2023-03-19T16:29:57.099Z,8.50
2023-03-19T16:32:45.843Z,8.07
2023-03-19T16:35:14.253Z,8.40
2023-03-19T16:37:46.779Z,8.30
2023-03-19T16:40:13.518Z,7.80
2023-03-19T16:42:41.719Z,8.93
2023-03-19T16:45:18.877Z,8.63
2023-03-19T16:47:50.787Z,8.60
2023-03-19T16:50:19.749Z,8.60
2023-03-19T16:52:47.582Z,8.67
2023-03-19T16:55:25.398Z,8.17
2023-03-19T16:58:06.552Z,8.03
2023-03-19T17:00:35.972Z,7.57
2023-03-19T17:03:08.541Z,8.70
2023-03-19T17:05:35.939Z,8.37
2023-03-19T17:08:04.202Z,8.80
2023-03-19T17:10:38.315Z,8.00
2023-03-19T17:13:06.423Z,8.43
2023-03-19T17:15:41.496Z,8.97
2023-03-19T17:18:15.747Z,8.57
2023-03-19T17:20:51.149Z,8.10
2023-03-19T17:23:27.237Z,8.60
2023-03-19T17:25:54.192Z,8.10
2023-03-19T17:28:24.365Z,8.70
2023-03-19T17:30:55.727Z,8.60
2023-03-19T17:33:26.821Z,8.43
2023-03-19T17:35:57.701Z,8.63
2023-03-19T17:38:33.105Z,8.60
2023-03-19T17:41:02.619Z,8.47
2023-03-19T17:43:34.500Z,8.33
2023-03-19T17:46:02.634Z,8.43
2023-03-19T17:48:29.720Z,8.30
2023-03-19T17:51:01.190Z,8.37
2023-03-19T17:53:31.672Z,8.53
2023-03-19T17:56:04.329Z,8.63
2023-03-19T17:58:36.414Z,8.20
2023-03-19T18:01:09.145Z,7.77
2023-03-19T18:03:38.549Z,7.80
2023-03-19T18:06:09.102Z,8.30
2023-03-19T18:08:38.590Z,8.30
2023-03-19T18:11:09.185Z,7.90
2023-03-19T18:13:41.132Z,8.30
2023-03-19T18:16:19.624Z,8.03
2023-03-19T18:19:08.890Z,7.60
2023-03-19T18:21:38.946Z,8.60
2023-03-19T18:25:22.027Z,8.50
2023-03-19T18:27:49.401Z,7.80
2023-03-19T18:30:19.214Z,8.23
2023-03-19T18:32:50.776Z,8.23
2023-03-19T18:35:55.424Z,8.97
2023-03-19T18:38:41.462Z,8.80
2023-03-19T18:41:09.811Z,8.70
2023-03-19T18:43:38.502Z,8.37
2023-03-19T18:46:06.523Z,8.93
2023-03-19T18:48:34.113Z,8.40
2023-03-19T18:51:01.272Z,8.53
2023-03-19T18:53:33.971Z,8.40
2023-03-19T18:56:04.021Z,8.97
2023-03-19T18:58:33.830Z,8.30
2023-03-19T19:01:04.707Z,9.03
2023-03-19T19:03:33.784Z,9.47
2023-03-19T19:06:02.451Z,9.43
2023-03-19T19:08:29.983Z,9.07
2023-03-19T19:10:59.372Z,8.57
2023-03-19T19:13:29.447Z,9.33
2023-03-19T19:15:59.471Z,8.90
2023-03-19T19:18:33.497Z,9.30
2023-03-19T19:21:02.187Z,9.37
2023-03-19T19:23:31.637Z,9.23
2023-03-19T19:25:58.779Z,9.30
2023-03-19T19:28:34.144Z,8.70
2023-03-19T19:31:01.303Z,9.70
2023-03-19T19:33:33.219Z,9.13
2023-03-19T19:36:01.586Z,9.47
2023-03-19T19:38:30.395Z,9.77
2023-03-19T19:41:00.151Z,9.43
2023-03-19T19:43:33.464Z,10.03
2023-03-19T19:46:00.420Z,8.97
2023-03-19T19:48:29.209Z,9.30
2023-03-19T19:51:00.035Z,10.37
2023-03-19T19:53:28.856Z,11.40
2023-03-19T19:55:55.590Z,17.20
2023-03-19T19:58:32.922Z,15.43
2023-03-19T20:01:04.460Z,14.07
2023-03-19T20:03:33.589Z,12.47
2023-03-19T20:06:01.638Z,12.97
2023-03-19T20:08:29.015Z,12.60
2023-03-19T20:10:56.331Z,11.20
2023-03-19T20:13:26.116Z,10.67
2023-03-19T20:15:54.937Z,11.70
2023-03-19T20:18:23.160Z,11.03
2023-03-19T20:20:49.957Z,10.40
2023-03-19T20:23:16.927Z,11.20
2023-03-19T20:25:45.069Z,11.53
2023-03-19T20:28:27.803Z,11.17
2023-03-19T20:30:54.970Z,10.83
2023-03-19T20:33:22.622Z,11.40
2023-03-19T20:35:49.594Z,11.50
2023-03-19T20:38:16.540Z,11.50
2023-03-19T20:40:49.373Z,11.53
2023-03-19T20:43:29.308Z,12.00
2023-03-19T20:45:57.835Z,12.43
2023-03-19T20:48:25.812Z,12.67
2023-03-19T20:50:55.745Z,14.33
2023-03-19T20:53:23.129Z,14.70
2023-03-19T20:55:50.141Z,13.63
2023-03-19T20:58:37.223Z,14.23
2023-03-19T21:01:05.672Z,15.10
2023-03-19T21:03:32.942Z,15.57
2023-03-19T21:06:02.463Z,17.33
2023-03-19T21:08:38.786Z,17.37
2023-03-19T21:11:05.993Z,19.27
2023-03-19T21:13:32.793Z,19.33
2023-03-19T21:15:59.903Z,19.93
2023-03-19T21:18:26.899Z,23.80
2023-03-19T21:20:54.859Z,21.20
2023-03-19T21:23:28.212Z,37.33
2023-03-19T21:25:57.580Z,19.10
2023-03-19T21:28:26.804Z,16.83
2023-03-19T21:30:53.846Z,16.70
2023-03-19T21:33:34.667Z,16.10
2023-03-19T21:36:02.917Z,15.93
2023-03-19T21:38:30.005Z,15.50
2023-03-19T21:41:01.231Z,16.73
2023-03-19T21:43:56.319Z,16.23
2023-03-19T21:46:28.661Z,15.73
2023-03-19T21:48:56.941Z,16.30
2023-03-19T21:51:25.474Z,16.03
2023-03-19T21:53:52.441Z,16.33
2023-03-19T21:56:21.449Z,15.40
2023-03-19T21:58:48.993Z,15.57
2023-03-19T22:01:22.771Z,16.77
2023-03-19T22:03:52.706Z,15.73
2023-03-19T22:06:20.335Z,15.97
2023-03-19T22:08:49.234Z,18.03
2023-03-19T22:11:24.825Z,16.77
2023-03-19T22:13:54.177Z,16.90
2023-03-19T22:16:26.506Z,18.10
2023-03-19T22:18:56.557Z,17.20
2023-03-19T22:21:24.128Z,17.90
2023-03-19T22:23:53.596Z,18.30
2023-03-19T22:26:31.596Z,18.13
2023-03-19T22:29:04.085Z,18.03
2023-03-19T22:31:31.669Z,17.93
2023-03-19T22:33:58.869Z,17.73
2023-03-19T22:36:29.153Z,17.00
2023-03-19T22:38:56.284Z,18.13
2023-03-19T22:41:28.902Z,18.43
2023-03-19T22:44:00.797Z,18.03
2023-03-19T22:46:29.280Z,17.77
2023-03-19T22:48:56.233Z,18.90
2023-03-19T22:51:27.590Z,17.83
2023-03-19T22:53:55.424Z,18.60
2023-03-19T22:56:22.526Z,19.13
2023-03-19T22:58:49.590Z,19.53
2023-03-19T23:01:46.436Z,19.43
2023-03-19T23:04:22.009Z,18.93
2023-03-19T23:06:54.908Z,18.43
2023-03-19T23:09:39.048Z,18.57
2023-03-19T23:14:36.924Z,18.13
2023-03-19T23:17:14.505Z,19.20
2023-03-19T23:19:42.955Z,18.47
2023-03-19T23:22:18.120Z,18.50
2023-03-19T23:24:46.804Z,19.30
2023-03-19T23:27:42.198Z,18.07
2023-03-19T23:30:28.491Z,18.17
2023-03-19T23:32:57.458Z,19.30
2023-03-19T23:35:27.737Z,17.97
2023-03-19T23:37:56.940Z,18.87
2023-03-19T23:40:31.583Z,18.73
2023-03-19T23:43:00.059Z,18.07
2023-03-19T23:45:42.345Z,18.20
2023-03-19T23:48:27.475Z,18.60
2023-03-19T23:50:54.836Z,18.53
2023-03-19T23:53:27.406Z,19.40
2023-03-19T23:55:59.617Z,19.37
2023-03-19T23:58:44.219Z,19.40
